sensor_id;sensor_type;location;lat;lon;timestamp;temperature;humidity
23311;DHT22;11828;51.508;18.118;2023-05-07T00:00:55;25.20;34.70
23311;DHT22;11828;51.508;18.118;2023-05-07T00:03:22;25.30;34.70
23311;DHT22;11828;51.508;18.118;2023-05-07T00:05:48;25.40;34.70
23311;DHT22;11828;51.508;18.118;2023-05-07T00:08:14;25.20;34.40
23311;DHT22;11828;51.508;18.118;2023-05-07T00:10:40;25.30;34.50
23311;DHT22;11828;51.508;18.118;2023-05-07T00:13:07;25.30;34.40
23311;DHT22;11828;51.508;18.118;2023-05-07T00:15:33;25.40;34.40
23311;DHT22;11828;51.508;18.118;2023-05-07T00:17:59;25.30;34.40
23311;DHT22;11828;51.508;18.118;2023-05-07T00:20:25;25.40;34.30
23311;DHT22;11828;51.508;18.118;2023-05-07T00:22:52;25.30;34.20
23311;DHT22;11828;51.508;18.118;2023-05-07T00:25:18;25.30;34.30
23311;DHT22;11828;51.508;18.118;2023-05-07T00:27:45;25.30;34.40
23311;DHT22;11828;51.508;18.118;2023-05-07T00:30:12;25.30;34.30
23311;DHT22;11828;51.508;18.118;2023-05-07T00:32:38;25.20;34.20
23311;DHT22;11828;51.508;18.118;2023-05-07T00:35:05;25.20;34.20
23311;DHT22;11828;51.508;18.118;2023-05-07T00:37:32;25.20;34.30
23311;DHT22;11828;51.508;18.118;2023-05-07T00:39:58;25.20;34.40
23311;DHT22;11828;51.508;18.118;2023-05-07T00:42:24;25.20;34.30
23311;DHT22;11828;51.508;18.118;2023-05-07T00:44:50;25.20;34.20
23311;DHT22;11828;51.508;18.118;2023-05-07T00:47:17;25.30;34.20
23311;DHT22;11828;51.508;18.118;2023-05-07T00:49:44;25.30;34.00
23311;DHT22;11828;51.508;18.118;2023-05-07T00:52:14;25.20;34.00
23311;DHT22;11828;51.508;18.118;2023-05-07T00:54:42;25.20;34.10
23311;DHT22;11828;51.508;18.118;2023-05-07T00:57:09;25.20;34.00
23311;DHT22;11828;51.508;18.118;2023-05-07T00:59:37;25.20;34.10
23311;DHT22;11828;51.508;18.118;2023-05-07T01:02:03;25.20;34.10
23311;DHT22;11828;51.508;18.118;2023-05-07T01:04:29;25.20;33.90
23311;DHT22;11828;51.508;18.118;2023-05-07T01:06:57;25.20;33.80
23311;DHT22;11828;51.508;18.118;2023-05-07T01:09:27;25.20;33.90
23311;DHT22;11828;51.508;18.118;2023-05-07T01:11:55;25.20;34.00
23311;DHT22;11828;51.508;18.118;2023-05-07T01:14:23;25.20;33.90
23311;DHT22;11828;51.508;18.118;2023-05-07T01:16:50;25.20;33.80
23311;DHT22;11828;51.508;18.118;2023-05-07T01:19:19;25.20;33.80
23311;DHT22;11828;51.508;18.118;2023-05-07T01:21:48;25.20;34.00
23311;DHT22;11828;51.508;18.118;2023-05-07T01:24:15;25.30;34.00
23311;DHT22;11828;51.508;18.118;2023-05-07T01:26:42;25.20;33.80
23311;DHT22;11828;51.508;18.118;2023-05-07T01:29:09;25.20;33.80
23311;DHT22;11828;51.508;18.118;2023-05-07T01:31:37;25.20;33.80
23311;DHT22;11828;51.508;18.118;2023-05-07T01:34:05;25.20;33.80
23311;DHT22;11828;51.508;18.118;2023-05-07T01:36:33;25.20;33.70
23311;DHT22;11828;51.508;18.118;2023-05-07T01:39:01;25.10;33.70
23311;DHT22;11828;51.508;18.118;2023-05-07T01:41:28;25.10;33.80
23311;DHT22;11828;51.508;18.118;2023-05-07T01:43:54;25.10;33.90
23311;DHT22;11828;51.508;18.118;2023-05-07T01:46:22;25.00;33.90
23311;DHT22;11828;51.508;18.118;2023-05-07T01:48:49;25.00;33.90
23311;DHT22;11828;51.508;18.118;2023-05-07T01:51:16;25.00;33.80
23311;DHT22;11828;51.508;18.118;2023-05-07T01:53:42;25.10;33.90
23311;DHT22;11828;51.508;18.118;2023-05-07T01:56:09;25.00;33.80
23311;DHT22;11828;51.508;18.118;2023-05-07T01:58:35;25.00;33.80
23311;DHT22;11828;51.508;18.118;2023-05-07T02:01:02;25.00;33.50
23311;DHT22;11828;51.508;18.118;2023-05-07T02:03:28;24.90;33.50
23311;DHT22;11828;51.508;18.118;2023-05-07T02:05:54;24.90;33.60
23311;DHT22;11828;51.508;18.118;2023-05-07T02:08:20;24.80;33.60
23311;DHT22;11828;51.508;18.118;2023-05-07T02:10:47;24.80;33.70
23311;DHT22;11828;51.508;18.118;2023-05-07T02:13:13;24.80;33.80
23311;DHT22;11828;51.508;18.118;2023-05-07T02:15:39;24.80;33.70
23311;DHT22;11828;51.508;18.118;2023-05-07T02:18:07;24.80;33.80
23311;DHT22;11828;51.508;18.118;2023-05-07T02:20:35;24.80;33.80
23311;DHT22;11828;51.508;18.118;2023-05-07T02:23:01;24.80;33.80
23311;DHT22;11828;51.508;18.118;2023-05-07T02:25:28;24.70;33.80
23311;DHT22;11828;51.508;18.118;2023-05-07T02:27:54;24.80;33.80
23311;DHT22;11828;51.508;18.118;2023-05-07T02:30:21;24.80;33.80
23311;DHT22;11828;51.508;18.118;2023-05-07T02:32:47;24.70;33.80
23311;DHT22;11828;51.508;18.118;2023-05-07T02:35:13;24.70;33.80
23311;DHT22;11828;51.508;18.118;2023-05-07T02:37:39;24.70;33.80
23311;DHT22;11828;51.508;18.118;2023-05-07T02:40:06;24.70;33.80
23311;DHT22;11828;51.508;18.118;2023-05-07T02:42:33;24.70;33.70
23311;DHT22;11828;51.508;18.118;2023-05-07T02:44:59;24.80;33.80
23311;DHT22;11828;51.508;18.118;2023-05-07T02:47:25;24.80;33.60
23311;DHT22;11828;51.508;18.118;2023-05-07T02:49:54;24.70;33.60
23311;DHT22;11828;51.508;18.118;2023-05-07T02:52:21;24.70;33.70
23311;DHT22;11828;51.508;18.118;2023-05-07T02:54:47;24.70;33.70
23311;DHT22;11828;51.508;18.118;2023-05-07T02:57:13;24.80;33.70
23311;DHT22;11828;51.508;18.118;2023-05-07T02:59:41;24.80;33.70
23311;DHT22;11828;51.508;18.118;2023-05-07T03:02:07;24.80;33.60
23311;DHT22;11828;51.508;18.118;2023-05-07T03:04:34;24.80;33.50
23311;DHT22;11828;51.508;18.118;2023-05-07T03:06:59;24.80;33.40
23311;DHT22;11828;51.508;18.118;2023-05-07T03:09:26;24.80;33.60
23311;DHT22;11828;51.508;18.118;2023-05-07T03:11:52;24.80;33.50
23311;DHT22;11828;51.508;18.118;2023-05-07T03:14:18;24.80;33.60
23311;DHT22;11828;51.508;18.118;2023-05-07T03:16:44;24.80;33.60
23311;DHT22;11828;51.508;18.118;2023-05-07T03:19:10;24.70;33.60
23311;DHT22;11828;51.508;18.118;2023-05-07T03:21:36;24.70;33.50
23311;DHT22;11828;51.508;18.118;2023-05-07T03:24:03;24.60;33.40
23311;DHT22;11828;51.508;18.118;2023-05-07T03:26:29;24.60;33.50
23311;DHT22;11828;51.508;18.118;2023-05-07T03:28:55;24.60;33.60
23311;DHT22;11828;51.508;18.118;2023-05-07T03:31:21;24.60;33.60
23311;DHT22;11828;51.508;18.118;2023-05-07T03:33:52;24.60;33.50
23311;DHT22;11828;51.508;18.118;2023-05-07T03:36:19;24.60;33.30
23311;DHT22;11828;51.508;18.118;2023-05-07T03:38:46;24.70;33.60
23311;DHT22;11828;51.508;18.118;2023-05-07T03:41:13;24.70;33.50
23311;DHT22;11828;51.508;18.118;2023-05-07T03:43:39;24.80;33.30
23311;DHT22;11828;51.508;18.118;2023-05-07T03:46:06;24.80;33.20
23311;DHT22;11828;51.508;18.118;2023-05-07T03:48:32;24.80;33.20
23311;DHT22;11828;51.508;18.118;2023-05-07T03:50:58;24.80;33.00
23311;DHT22;11828;51.508;18.118;2023-05-07T03:53:25;24.80;33.10
23311;DHT22;11828;51.508;18.118;2023-05-07T03:55:51;24.80;33.20
23311;DHT22;11828;51.508;18.118;2023-05-07T03:58:18;24.80;33.20
23311;DHT22;11828;51.508;18.118;2023-05-07T04:00:44;24.80;33.10
23311;DHT22;11828;51.508;18.118;2023-05-07T04:03:11;24.80;33.10
23311;DHT22;11828;51.508;18.118;2023-05-07T04:05:37;24.80;33.10
23311;DHT22;11828;51.508;18.118;2023-05-07T04:08:03;24.80;33.20
23311;DHT22;11828;51.508;18.118;2023-05-07T04:10:30;24.90;33.00
23311;DHT22;11828;51.508;18.118;2023-05-07T04:12:56;24.80;33.10
23311;DHT22;11828;51.508;18.118;2023-05-07T04:15:23;24.80;33.00
23311;DHT22;11828;51.508;18.118;2023-05-07T04:17:49;24.80;33.00
23311;DHT22;11828;51.508;18.118;2023-05-07T04:20:16;24.70;33.10
23311;DHT22;11828;51.508;18.118;2023-05-07T04:22:43;24.70;33.20
23311;DHT22;11828;51.508;18.118;2023-05-07T04:25:09;24.80;33.30
23311;DHT22;11828;51.508;18.118;2023-05-07T04:27:36;24.80;33.30
23311;DHT22;11828;51.508;18.118;2023-05-07T04:30:03;24.70;33.10
23311;DHT22;11828;51.508;18.118;2023-05-07T04:32:30;24.70;33.10
23311;DHT22;11828;51.508;18.118;2023-05-07T04:34:56;24.70;33.00
23311;DHT22;11828;51.508;18.118;2023-05-07T04:37:22;24.80;33.10
23311;DHT22;11828;51.508;18.118;2023-05-07T04:39:49;24.80;33.20
23311;DHT22;11828;51.508;18.118;2023-05-07T04:42:18;24.70;33.00
23311;DHT22;11828;51.508;18.118;2023-05-07T04:44:44;24.60;33.00
23311;DHT22;11828;51.508;18.118;2023-05-07T04:47:11;24.60;32.90
23311;DHT22;11828;51.508;18.118;2023-05-07T04:49:40;24.60;32.90
23311;DHT22;11828;51.508;18.118;2023-05-07T04:52:06;24.60;33.00
23311;DHT22;11828;51.508;18.118;2023-05-07T04:54:32;24.70;33.10
23311;DHT22;11828;51.508;18.118;2023-05-07T04:56:59;24.70;33.00
23311;DHT22;11828;51.508;18.118;2023-05-07T04:59:25;24.80;33.00
23311;DHT22;11828;51.508;18.118;2023-05-07T05:01:51;24.70;32.80
23311;DHT22;11828;51.508;18.118;2023-05-07T05:04:17;24.80;32.90
23311;DHT22;11828;51.508;18.118;2023-05-07T05:06:43;24.80;32.70
23311;DHT22;11828;51.508;18.118;2023-05-07T05:09:09;24.80;32.80
23311;DHT22;11828;51.508;18.118;2023-05-07T05:11:36;24.70;32.90
23311;DHT22;11828;51.508;18.118;2023-05-07T05:14:02;24.70;32.90
23311;DHT22;11828;51.508;18.118;2023-05-07T05:16:29;24.60;32.80
23311;DHT22;11828;51.508;18.118;2023-05-07T05:18:55;24.50;32.80
23311;DHT22;11828;51.508;18.118;2023-05-07T05:21:21;24.40;33.00
23311;DHT22;11828;51.508;18.118;2023-05-07T05:23:47;24.30;33.00
23311;DHT22;11828;51.508;18.118;2023-05-07T05:26:13;24.30;33.30
23311;DHT22;11828;51.508;18.118;2023-05-07T05:28:39;24.40;33.30
23311;DHT22;11828;51.508;18.118;2023-05-07T05:31:06;24.30;33.30
23311;DHT22;11828;51.508;18.118;2023-05-07T05:33:32;24.40;33.20
23311;DHT22;11828;51.508;18.118;2023-05-07T05:35:58;24.40;33.00
23311;DHT22;11828;51.508;18.118;2023-05-07T05:38:24;24.40;33.20
23311;DHT22;11828;51.508;18.118;2023-05-07T05:40:51;24.40;33.00
23311;DHT22;11828;51.508;18.118;2023-05-07T05:43:17;24.40;33.10
23311;DHT22;11828;51.508;18.118;2023-05-07T05:45:44;24.40;33.00
23311;DHT22;11828;51.508;18.118;2023-05-07T05:48:10;24.40;32.70
23311;DHT22;11828;51.508;18.118;2023-05-07T05:50:36;24.50;32.70
23311;DHT22;11828;51.508;18.118;2023-05-07T05:53:02;24.50;32.80
23311;DHT22;11828;51.508;18.118;2023-05-07T05:55:28;24.40;32.50
23311;DHT22;11828;51.508;18.118;2023-05-07T05:57:59;24.40;32.60
23311;DHT22;11828;51.508;18.118;2023-05-07T06:00:26;24.50;32.80
23311;DHT22;11828;51.508;18.118;2023-05-07T06:02:52;24.60;32.60
23311;DHT22;11828;51.508;18.118;2023-05-07T06:05:18;24.70;32.50
23311;DHT22;11828;51.508;18.118;2023-05-07T06:07:44;24.80;32.40
23311;DHT22;11828;51.508;18.118;2023-05-07T06:10:10;24.70;32.20
23311;DHT22;11828;51.508;18.118;2023-05-07T06:12:36;24.80;32.20
23311;DHT22;11828;51.508;18.118;2023-05-07T06:15:03;24.90;32.20
23311;DHT22;11828;51.508;18.118;2023-05-07T06:17:30;24.90;32.00
23311;DHT22;11828;51.508;18.118;2023-05-07T06:19:56;24.90;31.80
23311;DHT22;11828;51.508;18.118;2023-05-07T06:22:22;24.90;31.50
23311;DHT22;11828;51.508;18.118;2023-05-07T06:24:48;25.00;31.30
23311;DHT22;11828;51.508;18.118;2023-05-07T06:27:14;24.90;31.20
23311;DHT22;11828;51.508;18.118;2023-05-07T06:29:40;25.00;31.40
23311;DHT22;11828;51.508;18.118;2023-05-07T06:32:08;25.00;31.20
23311;DHT22;11828;51.508;18.118;2023-05-07T06:34:34;25.10;31.20
23311;DHT22;11828;51.508;18.118;2023-05-07T06:37:00;25.10;31.00
23311;DHT22;11828;51.508;18.118;2023-05-07T06:39:27;25.20;31.20
23311;DHT22;11828;51.508;18.118;2023-05-07T06:41:53;25.10;31.10
23311;DHT22;11828;51.508;18.118;2023-05-07T06:44:20;25.00;31.10
23311;DHT22;11828;51.508;18.118;2023-05-07T06:46:45;25.00;31.40
23311;DHT22;11828;51.508;18.118;2023-05-07T06:49:12;25.00;31.50
23311;DHT22;11828;51.508;18.118;2023-05-07T06:51:39;24.90;31.60
23311;DHT22;11828;51.508;18.118;2023-05-07T06:54:05;24.90;31.40
23311;DHT22;11828;51.508;18.118;2023-05-07T06:56:32;24.90;31.60
23311;DHT22;11828;51.508;18.118;2023-05-07T06:59:00;24.80;31.40
23311;DHT22;11828;51.508;18.118;2023-05-07T07:01:27;24.80;31.40
23311;DHT22;11828;51.508;18.118;2023-05-07T07:03:53;24.80;31.50
23311;DHT22;11828;51.508;18.118;2023-05-07T07:06:19;24.80;31.20
23311;DHT22;11828;51.508;18.118;2023-05-07T07:08:45;24.90;31.30
23311;DHT22;11828;51.508;18.118;2023-05-07T07:11:11;25.00;31.40
23311;DHT22;11828;51.508;18.118;2023-05-07T07:13:38;25.10;31.20
23311;DHT22;11828;51.508;18.118;2023-05-07T07:16:05;25.30;31.00
23311;DHT22;11828;51.508;18.118;2023-05-07T07:18:32;25.50;30.90
23311;DHT22;11828;51.508;18.118;2023-05-07T07:20:58;25.70;30.90
23311;DHT22;11828;51.508;18.118;2023-05-07T07:23:25;25.80;30.60
23311;DHT22;11828;51.508;18.118;2023-05-07T07:25:51;25.90;30.40
23311;DHT22;11828;51.508;18.118;2023-05-07T07:28:17;25.90;30.00
23311;DHT22;11828;51.508;18.118;2023-05-07T07:30:43;25.80;30.00
23311;DHT22;11828;51.508;18.118;2023-05-07T07:33:10;25.70;30.20
23311;DHT22;11828;51.508;18.118;2023-05-07T07:35:36;25.70;30.40
23311;DHT22;11828;51.508;18.118;2023-05-07T07:38:02;25.70;30.50
23311;DHT22;11828;51.508;18.118;2023-05-07T07:40:28;25.90;30.40
23311;DHT22;11828;51.508;18.118;2023-05-07T07:42:55;26.10;30.20
23311;DHT22;11828;51.508;18.118;2023-05-07T07:45:22;26.30;30.00
23311;DHT22;11828;51.508;18.118;2023-05-07T07:47:48;26.50;30.00
23311;DHT22;11828;51.508;18.118;2023-05-07T07:50:14;26.40;29.40
23311;DHT22;11828;51.508;18.118;2023-05-07T07:52:40;26.40;29.50
23311;DHT22;11828;51.508;18.118;2023-05-07T07:55:06;26.30;30.00
23311;DHT22;11828;51.508;18.118;2023-05-07T07:57:33;26.20;29.30
23311;DHT22;11828;51.508;18.118;2023-05-07T07:59:59;26.10;29.40
23311;DHT22;11828;51.508;18.118;2023-05-07T08:02:26;26.00;29.40
23311;DHT22;11828;51.508;18.118;2023-05-07T08:04:52;25.80;29.50
23311;DHT22;11828;51.508;18.118;2023-05-07T08:07:18;25.80;29.80
23311;DHT22;11828;51.508;18.118;2023-05-07T08:09:46;25.80;29.80
23311;DHT22;11828;51.508;18.118;2023-05-07T08:12:13;26.00;29.70
23311;DHT22;11828;51.508;18.118;2023-05-07T08:14:38;25.90;29.60
23311;DHT22;11828;51.508;18.118;2023-05-07T08:17:05;25.90;29.80
23311;DHT22;11828;51.508;18.118;2023-05-07T08:19:31;25.80;29.20
23311;DHT22;11828;51.508;18.118;2023-05-07T08:21:57;25.70;29.20
23311;DHT22;11828;51.508;18.118;2023-05-07T08:24:23;25.60;29.20
23311;DHT22;11828;51.508;18.118;2023-05-07T08:26:49;25.60;29.50
23311;DHT22;11828;51.508;18.118;2023-05-07T08:29:15;25.60;29.70
23311;DHT22;11828;51.508;18.118;2023-05-07T08:31:42;25.60;29.70
23311;DHT22;11828;51.508;18.118;2023-05-07T08:34:08;25.70;29.60
23311;DHT22;11828;51.508;18.118;2023-05-07T08:36:34;25.80;29.60
23311;DHT22;11828;51.508;18.118;2023-05-07T08:39:00;25.80;29.50
23311;DHT22;11828;51.508;18.118;2023-05-07T08:41:27;25.90;29.60
23311;DHT22;11828;51.508;18.118;2023-05-07T08:43:58;25.80;29.40
23311;DHT22;11828;51.508;18.118;2023-05-07T08:46:31;25.70;29.80
23311;DHT22;11828;51.508;18.118;2023-05-07T08:48:58;25.80;29.80
23311;DHT22;11828;51.508;18.118;2023-05-07T08:51:24;25.90;29.10
23311;DHT22;11828;51.508;18.118;2023-05-07T08:53:51;25.90;29.70
23311;DHT22;11828;51.508;18.118;2023-05-07T08:56:17;25.90;29.70
23311;DHT22;11828;51.508;18.118;2023-05-07T08:58:45;25.80;29.60
23311;DHT22;11828;51.508;18.118;2023-05-07T09:01:16;26.00;29.70
23311;DHT22;11828;51.508;18.118;2023-05-07T09:03:46;26.10;29.80
23311;DHT22;11828;51.508;18.118;2023-05-07T09:06:12;26.30;29.70
23311;DHT22;11828;51.508;18.118;2023-05-07T09:08:39;26.60;29.50
23311;DHT22;11828;51.508;18.118;2023-05-07T09:11:05;26.90;29.20
23311;DHT22;11828;51.508;18.118;2023-05-07T09:13:31;27.10;28.60
23311;DHT22;11828;51.508;18.118;2023-05-07T09:15:57;27.30;28.60
23311;DHT22;11828;51.508;18.118;2023-05-07T09:18:26;27.30;28.50
23311;DHT22;11828;51.508;18.118;2023-05-07T09:20:52;27.20;28.40
23311;DHT22;11828;51.508;18.118;2023-05-07T09:23:19;27.10;28.60
23311;DHT22;11828;51.508;18.118;2023-05-07T09:25:46;27.20;28.60
23311;DHT22;11828;51.508;18.118;2023-05-07T09:28:12;27.30;28.70
23311;DHT22;11828;51.508;18.118;2023-05-07T09:30:38;27.40;28.40
23311;DHT22;11828;51.508;18.118;2023-05-07T09:33:04;27.40;28.20
23311;DHT22;11828;51.508;18.118;2023-05-07T09:35:31;27.40;28.10
23311;DHT22;11828;51.508;18.118;2023-05-07T09:37:58;27.40;27.90
23311;DHT22;11828;51.508;18.118;2023-05-07T09:40:27;27.40;28.00
23311;DHT22;11828;51.508;18.118;2023-05-07T09:42:55;27.30;28.20
23311;DHT22;11828;51.508;18.118;2023-05-07T09:47:55;27.20;28.10
23311;DHT22;11828;51.508;18.118;2023-05-07T09:50:28;27.20;28.50
23311;DHT22;11828;51.508;18.118;2023-05-07T09:52:56;27.20;28.10
23311;DHT22;11828;51.508;18.118;2023-05-07T09:55:23;27.20;28.00
23311;DHT22;11828;51.508;18.118;2023-05-07T09:57:50;27.00;28.00
23311;DHT22;11828;51.508;18.118;2023-05-07T10:00:22;26.90;28.30
23311;DHT22;11828;51.508;18.118;2023-05-07T10:02:50;26.80;28.40
23311;DHT22;11828;51.508;18.118;2023-05-07T10:05:18;26.70;28.70
23311;DHT22;11828;51.508;18.118;2023-05-07T10:07:48;26.70;28.90
23311;DHT22;11828;51.508;18.118;2023-05-07T10:10:17;26.70;28.90
23311;DHT22;11828;51.508;18.118;2023-05-07T10:12:43;26.80;29.00
23311;DHT22;11828;51.508;18.118;2023-05-07T10:15:11;27.00;29.00
23311;DHT22;11828;51.508;18.118;2023-05-07T10:17:39;26.90;28.20
23311;DHT22;11828;51.508;18.118;2023-05-07T10:20:06;27.10;28.30
23311;DHT22;11828;51.508;18.118;2023-05-07T10:22:44;26.90;28.20
23311;DHT22;11828;51.508;18.118;2023-05-07T10:25:18;26.80;28.40
23311;DHT22;11828;51.508;18.118;2023-05-07T10:27:48;26.60;28.60
23311;DHT22;11828;51.508;18.118;2023-05-07T10:30:44;26.70;28.90
23311;DHT22;11828;51.508;18.118;2023-05-07T10:33:20;27.00;29.30
23311;DHT22;11828;51.508;18.118;2023-05-07T10:35:49;27.30;28.80
23311;DHT22;11828;51.508;18.118;2023-05-07T10:38:15;27.70;28.50
23311;DHT22;11828;51.508;18.118;2023-05-07T10:40:42;28.10;28.30
23311;DHT22;11828;51.508;18.118;2023-05-07T10:43:09;28.30;28.00
23311;DHT22;11828;51.508;18.118;2023-05-07T10:45:35;28.40;27.50
23311;DHT22;11828;51.508;18.118;2023-05-07T10:48:13;28.20;27.40
23311;DHT22;11828;51.508;18.118;2023-05-07T10:50:42;28.10;27.50
23311;DHT22;11828;51.508;18.118;2023-05-07T10:55:48;27.70;27.70
23311;DHT22;11828;51.508;18.118;2023-05-07T11:03:26;27.50;27.90
23311;DHT22;11828;51.508;18.118;2023-05-07T11:06:11;27.50;27.40
23311;DHT22;11828;51.508;18.118;2023-05-07T11:08:57;27.50;27.40
23311;DHT22;11828;51.508;18.118;2023-05-07T11:14:14;27.40;27.80
23311;DHT22;11828;51.508;18.118;2023-05-07T11:16:42;27.30;27.90
23311;DHT22;11828;51.508;18.118;2023-05-07T11:19:08;27.00;28.00
23311;DHT22;11828;51.508;18.118;2023-05-07T11:21:39;26.90;28.10
23311;DHT22;11828;51.508;18.118;2023-05-07T11:24:07;26.90;28.30
23311;DHT22;11828;51.508;18.118;2023-05-07T11:26:47;26.90;28.40
23311;DHT22;11828;51.508;18.118;2023-05-07T11:29:20;26.80;28.20
23311;DHT22;11828;51.508;18.118;2023-05-07T11:31:54;26.80;28.20
23311;DHT22;11828;51.508;18.118;2023-05-07T11:34:25;27.10;28.40
23311;DHT22;11828;51.508;18.118;2023-05-07T11:36:52;27.30;28.40
23311;DHT22;11828;51.508;18.118;2023-05-07T11:41:55;27.80;27.70
23311;DHT22;11828;51.508;18.118;2023-05-07T11:44:21;28.00;27.20
23311;DHT22;11828;51.508;18.118;2023-05-07T11:46:48;28.00;26.90
23311;DHT22;11828;51.508;18.118;2023-05-07T11:49:15;28.00;27.20
23311;DHT22;11828;51.508;18.118;2023-05-07T11:51:41;27.90;27.20
23311;DHT22;11828;51.508;18.118;2023-05-07T11:54:08;28.00;27.40
23311;DHT22;11828;51.508;18.118;2023-05-07T11:56:37;27.80;27.20
23311;DHT22;11828;51.508;18.118;2023-05-07T11:59:04;27.80;27.50
23311;DHT22;11828;51.508;18.118;2023-05-07T12:01:31;27.60;27.30
23311;DHT22;11828;51.508;18.118;2023-05-07T12:03:57;27.30;27.40
23311;DHT22;11828;51.508;18.118;2023-05-07T12:06:23;27.20;27.70
23311;DHT22;11828;51.508;18.118;2023-05-07T12:08:49;27.10;27.60
23311;DHT22;11828;51.508;18.118;2023-05-07T12:11:21;26.90;27.80
23311;DHT22;11828;51.508;18.118;2023-05-07T12:13:48;26.80;28.10
23311;DHT22;11828;51.508;18.118;2023-05-07T12:16:15;26.70;28.20
23311;DHT22;11828;51.508;18.118;2023-05-07T12:18:41;26.70;28.20
23311;DHT22;11828;51.508;18.118;2023-05-07T12:21:08;26.70;28.30
23311;DHT22;11828;51.508;18.118;2023-05-07T12:23:36;26.80;28.20
23311;DHT22;11828;51.508;18.118;2023-05-07T12:26:03;26.80;28.10
23311;DHT22;11828;51.508;18.118;2023-05-07T12:28:30;27.10;28.10
23311;DHT22;11828;51.508;18.118;2023-05-07T12:30:57;27.40;27.70
23311;DHT22;11828;51.508;18.118;2023-05-07T12:33:25;27.60;27.20
23311;DHT22;11828;51.508;18.118;2023-05-07T12:35:54;27.70;26.90
23311;DHT22;11828;51.508;18.118;2023-05-07T12:38:21;27.80;27.00
23311;DHT22;11828;51.508;18.118;2023-05-07T12:40:49;28.00;26.90
23311;DHT22;11828;51.508;18.118;2023-05-07T12:43:21;28.20;26.80
23311;DHT22;11828;51.508;18.118;2023-05-07T12:45:51;28.40;26.80
23311;DHT22;11828;51.508;18.118;2023-05-07T12:48:20;28.60;26.80
23311;DHT22;11828;51.508;18.118;2023-05-07T12:50:51;28.70;26.10
23311;DHT22;11828;51.508;18.118;2023-05-07T12:53:22;28.60;25.80
23311;DHT22;11828;51.508;18.118;2023-05-07T12:55:51;28.70;26.10
23311;DHT22;11828;51.508;18.118;2023-05-07T12:58:28;28.70;26.00
23311;DHT22;11828;51.508;18.118;2023-05-07T13:00:59;28.80;26.10
23311;DHT22;11828;51.508;18.118;2023-05-07T13:03:34;28.70;25.80
23311;DHT22;11828;51.508;18.118;2023-05-07T13:06:03;28.80;25.80
23311;DHT22;11828;51.508;18.118;2023-05-07T13:08:40;28.60;25.90
23311;DHT22;11828;51.508;18.118;2023-05-07T13:11:09;28.60;25.90
23311;DHT22;11828;51.508;18.118;2023-05-07T13:13:39;28.50;26.00
23311;DHT22;11828;51.508;18.118;2023-05-07T13:16:10;28.50;26.00
23311;DHT22;11828;51.508;18.118;2023-05-07T13:18:39;28.50;26.00
23311;DHT22;11828;51.508;18.118;2023-05-07T13:21:05;28.50;25.80
23311;DHT22;11828;51.508;18.118;2023-05-07T13:23:32;28.50;25.80
23311;DHT22;11828;51.508;18.118;2023-05-07T13:25:59;28.40;25.70
23311;DHT22;11828;51.508;18.118;2023-05-07T13:28:25;28.50;26.10
23311;DHT22;11828;51.508;18.118;2023-05-07T13:30:52;28.60;26.10
23311;DHT22;11828;51.508;18.118;2023-05-07T13:33:19;28.70;26.00
23311;DHT22;11828;51.508;18.118;2023-05-07T13:35:45;28.70;25.70
23311;DHT22;11828;51.508;18.118;2023-05-07T13:38:11;28.70;25.70
23311;DHT22;11828;51.508;18.118;2023-05-07T13:40:37;28.60;25.50
23311;DHT22;11828;51.508;18.118;2023-05-07T13:43:05;28.40;25.70
23311;DHT22;11828;51.508;18.118;2023-05-07T13:45:31;28.30;26.00
23311;DHT22;11828;51.508;18.118;2023-05-07T13:47:58;28.30;26.00
23311;DHT22;11828;51.508;18.118;2023-05-07T13:50:24;28.30;26.10
23311;DHT22;11828;51.508;18.118;2023-05-07T13:52:52;28.40;26.10
23311;DHT22;11828;51.508;18.118;2023-05-07T13:55:18;28.40;25.80
23311;DHT22;11828;51.508;18.118;2023-05-07T13:57:46;28.30;25.60
23311;DHT22;11828;51.508;18.118;2023-05-07T14:00:13;28.30;25.80
23311;DHT22;11828;51.508;18.118;2023-05-07T14:02:41;28.10;25.80
23311;DHT22;11828;51.508;18.118;2023-05-07T14:05:07;28.10;26.10
23311;DHT22;11828;51.508;18.118;2023-05-07T14:07:35;28.10;26.10
23311;DHT22;11828;51.508;18.118;2023-05-07T14:10:01;28.10;26.10
23311;DHT22;11828;51.508;18.118;2023-05-07T14:12:28;28.20;26.00
23311;DHT22;11828;51.508;18.118;2023-05-07T14:14:54;28.20;25.90
23311;DHT22;11828;51.508;18.118;2023-05-07T14:17:20;28.10;26.00
23311;DHT22;11828;51.508;18.118;2023-05-07T14:19:48;28.20;25.90
23311;DHT22;11828;51.508;18.118;2023-05-07T14:22:14;28.10;25.90
23311;DHT22;11828;51.508;18.118;2023-05-07T14:24:41;28.10;26.00
23311;DHT22;11828;51.508;18.118;2023-05-07T14:27:07;28.00;25.90
23311;DHT22;11828;51.508;18.118;2023-05-07T14:29:33;28.10;26.10
23311;DHT22;11828;51.508;18.118;2023-05-07T14:32:01;28.20;26.30
23311;DHT22;11828;51.508;18.118;2023-05-07T14:34:29;28.30;26.10
23311;DHT22;11828;51.508;18.118;2023-05-07T14:36:55;28.30;26.10
23311;DHT22;11828;51.508;18.118;2023-05-07T14:39:21;28.20;25.30
23311;DHT22;11828;51.508;18.118;2023-05-07T14:41:47;28.10;25.50
23311;DHT22;11828;51.508;18.118;2023-05-07T14:44:13;28.00;25.80
23311;DHT22;11828;51.508;18.118;2023-05-07T14:46:40;28.00;26.00
23311;DHT22;11828;51.508;18.118;2023-05-07T14:49:06;27.90;26.20
23311;DHT22;11828;51.508;18.118;2023-05-07T14:51:32;27.80;26.20
23311;DHT22;11828;51.508;18.118;2023-05-07T14:53:59;27.80;26.40
23311;DHT22;11828;51.508;18.118;2023-05-07T14:56:26;27.80;26.40
23311;DHT22;11828;51.508;18.118;2023-05-07T14:58:52;27.90;26.50
23311;DHT22;11828;51.508;18.118;2023-05-07T15:01:19;28.00;26.00
23311;DHT22;11828;51.508;18.118;2023-05-07T15:03:45;28.10;26.20
23311;DHT22;11828;51.508;18.118;2023-05-07T15:06:12;28.10;26.20
23311;DHT22;11828;51.508;18.118;2023-05-07T15:08:38;28.10;26.20
23311;DHT22;11828;51.508;18.118;2023-05-07T15:11:04;28.10;26.20
23311;DHT22;11828;51.508;18.118;2023-05-07T15:13:30;28.00;26.10
23311;DHT22;11828;51.508;18.118;2023-05-07T15:15:57;27.80;26.10
23311;DHT22;11828;51.508;18.118;2023-05-07T15:18:23;27.70;26.10
23311;DHT22;11828;51.508;18.118;2023-05-07T15:20:49;27.60;26.30
23311;DHT22;11828;51.508;18.118;2023-05-07T15:23:16;27.50;26.40
23311;DHT22;11828;51.508;18.118;2023-05-07T15:25:42;27.50;26.60
23311;DHT22;11828;51.508;18.118;2023-05-07T15:28:08;27.40;26.50
23311;DHT22;11828;51.508;18.118;2023-05-07T15:30:34;27.50;26.50